Bellerose Manor, New York
Current Conditions -  °F | °C
As of 11:51 AM on Wednesday 22 Oct 2014 (Local Time) from KJFK Reporting Station
Overcast Overcast  
Wind Chill: 56°   Ceiling: 1500
Heat Index: 56°   Visibility: 10mi
Dew Point: 52°   Wind: 17mph
Humidity: 87%   Direction: 20°NNE
Pressure: 29.91"   Gusts: 24mph
Location:  40.7212°N, 73.7418°W
Report Text: KJFK 221551Z 02015G21KT 10SM OVC015 13/11 A2991 RMK AO2 RAE32 SLP127 P0000 T01330111
Loading
Personal Weather Stations






























Interactive Weather Map
Tropical Storm Tracking
New forecast layout! Learn more

10-Day Weather Forecast

Advertisements
Track Severe Weather on mobile